CGG weather

Casiguran Airport
Casiguran, Aurora Province, Philippines

Public forecast

Using degrees Celsius for public forecast. Weather courtesy of forecast.io.

METAR (pilot weather report)

Report is more than 6 hours old.

Closest report is Fort Magsaysay Airport, 72.4 nm (134.1 km) SW. Retrieved 2017/08/23 22:00 UTC (2 years ago):

RPLV 232200Z 19003KT 9999 FEW020 OVC090 25/24 Q1012 NOSIG RMK A2988

TAF (pilot weather forecast)

Forecast is more than 12 hours old.

Closest forecast is Diosdado Macapagal International Airport, 106.0 nm (196.3 km) SW. Retrieved 2019/03/25 06:27 UTC (2 days ago):

TAF RPLC 250500Z 2506/2612 16008KT 9999 FEW020 SCT300 TX34/2506Z TN24/2522Z TEMPO 2506/2512 14010KT SCT020 BKN300